Lyme Center, New Hampshire
Current Conditions -  °F | °C
As of 7:53 AM on Friday 19 Dec 2014 (Local Time) from KLEB Reporting Station
Overcast Overcast  
Wind Chill: 22°   Ceiling: 1900
Heat Index: 29°   Visibility: 10mi
Dew Point: 21°   Wind: 7mph
Humidity: 72%   Direction: NA
Pressure: 29.95"   Gusts: NA
Location:  43.8°N, 72.12°W
Report Text: KLEB 191253Z VRB06KT 10SM BKN019 OVC025 M02/M06 A2995 RMK AO2 SLP149 T10171061
Loading
Personal Weather Stations






























Interactive Weather Map New forecast layout! Learn more

10-Day Weather Forecast

Advertisements
Track Severe Weather on mobile